createdAt,value
2024-02-01T00:00:56.397Z,540.00
2024-02-01T00:01:56.355Z,542.00
2024-02-01T00:02:56.453Z,542.00
2024-02-01T00:03:56.398Z,545.00
2024-02-01T00:04:56.442Z,546.00
2024-02-01T00:05:56.517Z,545.00
2024-02-01T00:06:56.569Z,543.00
2024-02-01T00:07:56.456Z,540.00
2024-02-01T00:08:56.524Z,543.00
2024-02-01T00:09:56.501Z,542.00
2024-02-01T00:10:56.517Z,544.00
2024-02-01T00:11:56.566Z,543.00
2024-02-01T00:12:56.549Z,543.00
2024-02-01T00:13:56.569Z,544.00
2024-02-01T00:14:56.640Z,544.00
2024-02-01T00:15:56.627Z,544.00
2024-02-01T00:16:56.637Z,544.00
2024-02-01T00:17:56.738Z,546.00
2024-02-01T00:18:56.782Z,548.00
2024-02-01T00:19:56.836Z,550.00
2024-02-01T00:20:56.786Z,551.00
2024-02-01T00:21:56.736Z,550.00
2024-02-01T00:22:56.774Z,548.00
2024-02-01T00:23:56.803Z,548.00
2024-02-01T00:24:56.829Z,546.00
2024-02-01T00:25:56.842Z,546.00
2024-02-01T00:26:56.898Z,545.00
2024-02-01T00:27:56.884Z,543.00
2024-02-01T00:28:56.897Z,543.00
2024-02-01T00:29:56.980Z,540.00
2024-02-01T00:30:56.979Z,540.00
2024-02-01T00:31:56.964Z,540.00
2024-02-01T00:32:57.208Z,542.00
2024-02-01T00:33:57.132Z,544.00
2024-02-01T00:34:57.107Z,545.00
2024-02-01T00:35:57.093Z,543.00
2024-02-01T00:36:57.107Z,543.00
2024-02-01T00:37:57.107Z,545.00
2024-02-01T00:38:57.171Z,545.00
2024-02-01T00:39:57.189Z,545.00
2024-02-01T00:40:57.210Z,545.00
2024-02-01T00:41:57.276Z,545.00
2024-02-01T00:42:57.272Z,547.00
2024-02-01T00:43:57.271Z,545.00
2024-02-01T00:44:57.335Z,546.00
2024-02-01T00:45:57.349Z,544.00
2024-02-01T00:46:57.397Z,544.00
2024-02-01T00:47:57.492Z,544.00
2024-02-01T00:48:57.515Z,543.00
2024-02-01T00:49:57.429Z,542.00
2024-02-01T00:50:57.537Z,541.00
2024-02-01T00:51:57.508Z,543.00
2024-02-01T00:52:57.527Z,542.00
2024-02-01T00:53:57.623Z,543.00
2024-02-01T00:54:57.601Z,543.00
2024-02-01T00:55:57.641Z,544.00
2024-02-01T00:56:57.685Z,545.00
2024-02-01T00:57:57.653Z,546.00
2024-02-01T00:58:57.680Z,542.00
2024-02-01T00:59:57.848Z,542.00
2024-02-01T01:00:57.871Z,539.00
2024-02-01T01:01:57.815Z,538.00
2024-02-01T01:02:57.820Z,536.00
2024-02-01T01:03:57.865Z,537.00
2024-02-01T01:04:57.889Z,540.00
2024-02-01T01:05:57.881Z,542.00
2024-02-01T01:06:57.861Z,542.00
2024-02-01T01:07:57.951Z,543.00
2024-02-01T01:08:57.993Z,543.00
2024-02-01T01:09:57.955Z,541.00
2024-02-01T01:10:57.974Z,541.00
2024-02-01T01:11:58.019Z,539.00
2024-02-01T01:12:58.017Z,537.00
2024-02-01T01:13:58.045Z,536.00
2024-02-01T01:14:58.093Z,536.00
2024-02-01T01:15:58.119Z,538.00
2024-02-01T01:16:58.119Z,536.00
2024-02-01T01:17:58.209Z,535.00
2024-02-01T01:18:58.265Z,536.00
2024-02-01T01:19:58.249Z,535.00
2024-02-01T01:20:58.281Z,536.00
2024-02-01T01:21:58.255Z,534.00
2024-02-01T01:22:58.276Z,532.00
2024-02-01T01:23:58.336Z,532.00
2024-02-01T01:24:58.320Z,533.00
2024-02-01T01:25:58.360Z,537.00
2024-02-01T01:26:58.396Z,539.00
2024-02-01T01:27:58.400Z,540.00
2024-02-01T01:28:58.426Z,540.00
2024-02-01T01:29:58.496Z,539.00
2024-02-01T01:30:58.494Z,539.00
2024-02-01T01:31:58.531Z,541.00
2024-02-01T01:32:58.709Z,539.00
2024-02-01T01:33:58.859Z,537.00
2024-02-01T01:34:58.714Z,537.00
2024-02-01T01:35:58.639Z,540.00
2024-02-01T01:36:58.644Z,541.00
2024-02-01T01:37:58.675Z,540.00
2024-02-01T01:38:58.733Z,541.00
2024-02-01T01:39:58.714Z,539.00
2024-02-01T01:40:58.752Z,540.00
2024-02-01T01:41:58.789Z,541.00
2024-02-01T01:42:58.808Z,540.00
2024-02-01T01:43:58.840Z,539.00
2024-02-01T01:44:58.865Z,537.00
2024-02-01T01:45:58.889Z,536.00
2024-02-01T01:46:58.909Z,531.00
2024-02-01T01:47:59.070Z,528.00
2024-02-01T01:48:59.052Z,526.00
2024-02-01T01:49:59.046Z,524.00
2024-02-01T01:50:59.091Z,527.00
2024-02-01T01:51:59.053Z,528.00
2024-02-01T01:52:59.110Z,527.00
2024-02-01T01:53:59.117Z,529.00
2024-02-01T01:54:59.144Z,529.00
2024-02-01T01:55:59.163Z,530.00
2024-02-01T01:56:59.217Z,528.00
2024-02-01T01:57:59.211Z,526.00
2024-02-01T01:58:59.235Z,526.00
2024-02-01T01:59:59.435Z,529.00
2024-02-01T02:00:59.465Z,529.00
2024-02-01T02:01:59.353Z,533.00
2024-02-01T02:03:00.577Z,535.00
2024-02-01T02:03:59.497Z,534.00
2024-02-01T02:04:59.431Z,536.00
2024-02-01T02:05:59.542Z,537.00
2024-02-01T02:06:59.573Z,538.00
2024-02-01T02:07:59.518Z,538.00
2024-02-01T02:08:59.610Z,542.00
2024-02-01T02:09:59.581Z,543.00
2024-02-01T02:10:59.614Z,542.00
2024-02-01T02:11:59.695Z,542.00
2024-02-01T02:12:59.673Z,542.00
2024-02-01T02:13:59.715Z,542.00
2024-02-01T02:14:59.758Z,538.00
2024-02-01T02:15:59.767Z,537.00
2024-02-01T02:16:59.910Z,535.00
2024-02-01T02:17:59.993Z,536.00
2024-02-01T02:18:59.941Z,537.00
2024-02-01T02:19:59.911Z,537.00
2024-02-01T02:20:59.888Z,538.00
2024-02-01T02:21:59.900Z,540.00
2024-02-01T02:22:59.917Z,541.00
2024-02-01T02:23:59.996Z,539.00
2024-02-01T02:24:59.964Z,539.00
2024-02-01T02:25:59.990Z,539.00
2024-02-01T02:27:00.042Z,539.00
2024-02-01T02:28:00.069Z,538.00
2024-02-01T02:29:00.063Z,538.00
2024-02-01T02:30:00.204Z,540.00
2024-02-01T02:31:00.124Z,538.00
2024-02-01T02:32:00.153Z,538.00
2024-02-01T02:33:00.250Z,536.00
2024-02-01T02:34:00.348Z,539.00
2024-02-01T02:35:00.227Z,538.00
2024-02-01T02:36:00.259Z,537.00
2024-02-01T02:37:00.273Z,536.00
2024-02-01T02:38:00.316Z,536.00
2024-02-01T02:39:00.396Z,537.00
2024-02-01T02:40:00.375Z,539.00
2024-02-01T02:41:00.387Z,539.00
2024-02-01T02:42:00.427Z,540.00
2024-02-01T02:43:00.424Z,541.00
2024-02-01T02:44:00.472Z,540.00
2024-02-01T02:45:00.523Z,540.00
2024-02-01T02:46:00.560Z,540.00
2024-02-01T02:47:00.514Z,540.00
2024-02-01T02:48:00.712Z,538.00
2024-02-01T02:49:00.883Z,538.00
2024-02-01T02:50:00.601Z,539.00
2024-02-01T02:51:00.666Z,537.00
2024-02-01T02:52:00.680Z,535.00
2024-02-01T02:53:00.691Z,532.00
2024-02-01T02:54:00.812Z,533.00
2024-02-01T02:55:00.754Z,532.00
2024-02-01T02:56:00.786Z,533.00
2024-02-01T02:57:00.851Z,533.00
2024-02-01T02:58:00.818Z,533.00
2024-02-01T02:59:00.883Z,533.00
2024-02-01T03:00:00.901Z,533.00
2024-02-01T03:01:00.974Z,533.00
2024-02-01T03:02:00.925Z,533.00
2024-02-01T03:03:01.012Z,533.00
2024-02-01T03:04:01.000Z,531.00
2024-02-01T03:05:01.018Z,531.00
2024-02-01T03:06:01.129Z,530.00
2024-02-01T03:07:01.066Z,530.00
2024-02-01T03:08:01.091Z,529.00
2024-02-01T03:09:01.123Z,529.00
2024-02-01T03:10:01.150Z,528.00
2024-02-01T03:11:01.151Z,527.00
2024-02-01T03:12:01.187Z,528.00
2024-02-01T03:13:01.181Z,528.00
2024-02-01T03:14:01.217Z,532.00
2024-02-01T03:15:01.330Z,533.00
2024-02-01T03:16:01.294Z,535.00
2024-02-01T03:17:01.306Z,535.00
2024-02-01T03:18:01.452Z,535.00
2024-02-01T03:19:01.542Z,536.00
2024-02-01T03:20:01.402Z,537.00
2024-02-01T03:21:01.440Z,537.00
2024-02-01T03:22:01.454Z,536.00
2024-02-01T03:23:01.510Z,537.00
2024-02-01T03:24:01.554Z,539.00
2024-02-01T03:25:01.889Z,540.00
2024-02-01T03:26:01.586Z,540.00
2024-02-01T03:27:01.654Z,537.00
2024-02-01T03:28:01.706Z,538.00
2024-02-01T03:29:01.666Z,541.00
2024-02-01T03:30:01.975Z,539.00
2024-02-01T03:31:01.742Z,541.00
2024-02-01T03:32:01.832Z,541.00
2024-02-01T03:33:01.894Z,541.00
2024-02-01T03:34:02.023Z,538.00
2024-02-01T03:35:01.933Z,539.00
2024-02-01T03:36:01.905Z,538.00
2024-02-01T03:37:01.918Z,540.00
2024-02-01T03:38:01.969Z,539.00
2024-02-01T03:39:02.002Z,541.00
2024-02-01T03:40:02.004Z,543.00
2024-02-01T03:41:02.022Z,543.00
2024-02-01T03:42:02.415Z,543.00
2024-02-01T03:43:02.090Z,543.00
2024-02-01T03:44:02.122Z,541.00
2024-02-01T03:45:02.222Z,541.00
2024-02-01T03:46:02.170Z,543.00
2024-02-01T03:47:02.219Z,543.00
2024-02-01T03:48:02.374Z,543.00
2024-02-01T03:49:02.356Z,542.00
2024-02-01T03:50:02.421Z,543.00
2024-02-01T03:51:02.401Z,544.00
2024-02-01T03:52:02.387Z,545.00
2024-02-01T03:53:02.400Z,546.00
2024-02-01T03:54:02.495Z,546.00
2024-02-01T03:55:02.481Z,544.00
2024-02-01T03:56:02.503Z,546.00
2024-02-01T03:57:02.577Z,544.00
2024-02-01T03:58:02.614Z,543.00
2024-02-01T03:59:02.600Z,544.00
2024-02-01T04:00:02.652Z,545.00
2024-02-01T04:01:02.783Z,542.00
2024-02-01T04:02:02.693Z,541.00
2024-02-01T04:03:02.758Z,541.00
2024-02-01T04:04:02.816Z,542.00
2024-02-01T04:05:02.790Z,544.00
2024-02-01T04:06:02.890Z,546.00
2024-02-01T04:07:03.038Z,548.00
2024-02-01T04:08:02.884Z,550.00
2024-02-01T04:09:02.936Z,548.00
2024-02-01T04:10:02.946Z,545.00
2024-02-01T04:11:02.979Z,544.00
2024-02-01T04:12:03.036Z,544.00
2024-02-01T04:13:03.030Z,541.00
2024-02-01T04:14:03.047Z,542.00
2024-02-01T04:15:03.111Z,541.00
2024-02-01T04:16:03.139Z,543.00
2024-02-01T04:17:03.145Z,542.00
2024-02-01T04:18:03.321Z,541.00
2024-02-01T04:19:04.510Z,541.00
2024-02-01T04:20:03.299Z,545.00
2024-02-01T04:21:03.346Z,545.00
2024-02-01T04:22:03.332Z,544.00
2024-02-01T04:23:03.464Z,541.00
2024-02-01T04:24:03.397Z,539.00
2024-02-01T04:25:03.405Z,538.00
2024-02-01T04:26:03.443Z,538.00
2024-02-01T04:27:10.828Z,548.00
2024-02-01T04:28:11.073Z,545.00
2024-02-01T04:29:10.771Z,546.00
2024-02-01T04:30:10.826Z,546.00
2024-02-01T04:31:18.022Z,551.00
2024-02-01T04:32:18.003Z,546.00
2024-02-01T04:33:18.079Z,547.00
2024-02-01T04:34:19.069Z,547.00
2024-02-01T04:35:18.014Z,545.00
2024-02-01T04:36:18.042Z,545.00
2024-02-01T04:37:17.998Z,543.00
2024-02-01T04:38:18.060Z,542.00
2024-02-01T04:39:18.126Z,544.00
2024-02-01T04:40:18.048Z,544.00
2024-02-01T04:41:18.023Z,542.00
2024-02-01T04:42:18.072Z,542.00
2024-02-01T04:43:18.018Z,544.00
2024-02-01T04:44:18.032Z,548.00
2024-02-01T04:45:18.125Z,549.00
2024-02-01T04:46:18.026Z,548.00
2024-02-01T04:47:18.018Z,547.00
2024-02-01T04:48:18.140Z,546.00
2024-02-01T04:49:18.244Z,546.00
2024-02-01T04:50:18.036Z,546.00
2024-02-01T04:51:18.030Z,545.00
2024-02-01T04:52:18.027Z,547.00
2024-02-01T04:53:18.030Z,546.00
2024-02-01T04:54:18.104Z,547.00
2024-02-01T04:55:18.031Z,548.00
2024-02-01T04:56:18.035Z,547.00
2024-02-01T04:57:18.071Z,547.00
2024-02-01T04:58:18.037Z,549.00
2024-02-01T04:59:18.034Z,548.00
2024-02-01T05:00:18.132Z,549.00
2024-02-01T05:01:18.155Z,553.00
2024-02-01T05:02:18.093Z,552.00
2024-02-01T05:03:18.393Z,553.00
2024-02-01T05:04:18.039Z,553.00
2024-02-01T05:05:18.081Z,553.00
2024-02-01T05:06:18.100Z,552.00
2024-02-01T05:07:18.084Z,550.00
2024-02-01T05:08:18.030Z,550.00
2024-02-01T05:09:18.066Z,550.00
2024-02-01T05:10:18.066Z,548.00
2024-02-01T05:11:18.047Z,548.00
2024-02-01T05:12:18.099Z,550.00
2024-02-01T05:13:18.071Z,549.00
2024-02-01T05:14:18.049Z,552.00
2024-02-01T05:15:18.182Z,553.00
2024-02-01T05:16:18.152Z,553.00
2024-02-01T05:17:18.155Z,555.00
2024-02-01T05:18:18.287Z,558.00
2024-02-01T05:19:18.472Z,556.00
2024-02-01T05:20:18.269Z,554.00
2024-02-01T05:21:18.437Z,551.00
2024-02-01T05:22:18.321Z,550.00
2024-02-01T05:23:18.338Z,548.00
2024-02-01T05:24:18.451Z,549.00
2024-02-01T05:25:18.419Z,552.00
2024-02-01T05:26:18.482Z,550.00
2024-02-01T05:27:18.551Z,551.00
2024-02-01T05:28:18.514Z,550.00
2024-02-01T05:29:18.540Z,552.00
2024-02-01T05:30:21.083Z,553.00
2024-02-01T05:31:18.567Z,553.00
2024-02-01T05:32:18.721Z,549.00
2024-02-01T05:33:18.628Z,549.00
2024-02-01T05:34:18.762Z,549.00
2024-02-01T05:35:18.590Z,550.00
2024-02-01T05:36:18.634Z,552.00
2024-02-01T05:37:18.582Z,553.00
2024-02-01T05:38:18.599Z,552.00
2024-02-01T05:39:18.631Z,553.00
2024-02-01T05:40:18.591Z,549.00
2024-02-01T05:41:18.600Z,550.00
2024-02-01T05:42:18.662Z,553.00
2024-02-01T05:43:18.592Z,553.00
2024-02-01T05:44:18.606Z,555.00
2024-02-01T05:45:18.640Z,555.00
2024-02-01T05:46:18.599Z,554.00
2024-02-01T05:47:18.612Z,555.00
2024-02-01T05:48:18.711Z,553.00
2024-02-01T05:49:18.707Z,549.00
2024-02-01T05:50:18.612Z,548.00
2024-02-01T05:51:18.638Z,549.00
2024-02-01T05:52:18.661Z,550.00
2024-02-01T05:53:18.603Z,552.00
2024-02-01T05:54:18.677Z,553.00
2024-02-01T05:55:18.604Z,552.00
2024-02-01T05:56:18.628Z,549.00
2024-02-01T05:57:18.745Z,546.00
2024-02-01T05:58:18.646Z,542.00
2024-02-01T05:59:18.598Z,545.00
2024-02-01T06:00:18.801Z,547.00
2024-02-01T06:01:18.945Z,546.00
2024-02-01T06:02:18.617Z,544.00
2024-02-01T06:03:18.707Z,545.00
2024-02-01T06:04:18.642Z,546.00
2024-02-01T06:05:18.623Z,545.00
2024-02-01T06:06:18.806Z,545.00
2024-02-01T06:07:18.692Z,546.00
2024-02-01T06:08:18.632Z,549.00
2024-02-01T06:09:18.754Z,547.00
2024-02-01T06:10:18.638Z,546.00
2024-02-01T06:11:18.627Z,546.00
2024-02-01T06:12:18.795Z,547.00
2024-02-01T06:13:18.647Z,550.00
2024-02-01T06:14:18.683Z,549.00
2024-02-01T06:15:18.775Z,550.00
2024-02-01T06:16:18.643Z,551.00
2024-02-01T06:17:18.671Z,551.00
2024-02-01T06:18:18.789Z,549.00
2024-02-01T06:19:18.773Z,553.00
2024-02-01T06:20:18.655Z,551.00
2024-02-01T06:21:18.762Z,551.00
2024-02-01T06:22:18.638Z,558.00
2024-02-01T06:23:18.638Z,556.00
2024-02-01T06:24:18.810Z,556.00
2024-02-01T06:25:18.648Z,558.00
2024-02-01T06:26:18.656Z,560.00
2024-02-01T06:27:18.768Z,560.00
2024-02-01T06:28:18.658Z,559.00
2024-02-01T06:29:18.664Z,602.00
2024-02-01T06:30:18.752Z,619.00
2024-02-01T06:31:18.660Z,623.00
2024-02-01T06:32:18.668Z,668.00
2024-02-01T06:33:18.742Z,663.00
2024-02-01T06:34:18.702Z,666.00
2024-02-01T06:35:19.584Z,703.00
2024-02-01T06:36:19.186Z,699.00
2024-02-01T06:37:18.693Z,704.00
2024-02-01T06:38:18.659Z,749.00
2024-02-01T06:39:19.038Z,754.00
2024-02-01T06:40:18.757Z,772.00
2024-02-01T06:41:18.761Z,836.00
2024-02-01T06:42:18.854Z,850.00
2024-02-01T06:43:18.951Z,855.00
2024-02-01T06:44:18.668Z,857.00
2024-02-01T06:45:18.808Z,857.00
2024-02-01T06:46:18.683Z,848.00
2024-02-01T06:47:18.687Z,843.00
2024-02-01T06:48:18.773Z,838.00
2024-02-01T06:49:18.766Z,829.00
2024-02-01T06:50:18.729Z,819.00
2024-02-01T06:51:19.293Z,811.00
2024-02-01T06:52:18.833Z,799.00
2024-02-01T06:53:18.704Z,790.00
2024-02-01T06:54:18.757Z,788.00
2024-02-01T06:55:18.692Z,786.00
2024-02-01T06:56:18.715Z,784.00
2024-02-01T06:57:18.736Z,779.00
2024-02-01T06:58:18.696Z,776.00
2024-02-01T06:59:18.763Z,771.00
2024-02-01T07:00:18.740Z,766.00
2024-02-01T07:01:18.712Z,759.00
2024-02-01T07:02:18.691Z,754.00
2024-02-01T07:03:18.781Z,747.00
2024-02-01T07:04:19.041Z,746.00
2024-02-01T07:05:18.747Z,746.00
2024-02-01T07:06:18.822Z,742.00
2024-02-01T07:07:19.096Z,741.00
2024-02-01T07:08:18.777Z,738.00
2024-02-01T07:09:18.980Z,739.00
2024-02-01T07:10:18.789Z,739.00
2024-02-01T07:11:18.808Z,737.00
2024-02-01T07:12:19.032Z,735.00
2024-02-01T07:13:18.867Z,730.00
2024-02-01T07:14:18.893Z,731.00
2024-02-01T07:15:18.946Z,729.00
2024-02-01T07:16:18.909Z,727.00
2024-02-01T07:17:18.984Z,724.00
2024-02-01T07:18:19.019Z,726.00
2024-02-01T07:19:19.140Z,723.00
2024-02-01T07:20:18.970Z,722.00
2024-02-01T07:21:19.057Z,720.00
2024-02-01T07:22:19.187Z,716.00
2024-02-01T07:23:19.045Z,711.00
2024-02-01T07:24:19.325Z,708.00
2024-02-01T07:25:19.105Z,702.00
2024-02-01T07:26:19.524Z,700.00
2024-02-01T07:27:19.162Z,698.00
2024-02-01T07:28:19.156Z,697.00
2024-02-01T07:29:19.171Z,695.00
2024-02-01T07:30:19.242Z,690.00
2024-02-01T07:31:19.703Z,688.00
2024-02-01T07:32:19.229Z,691.00
2024-02-01T07:33:19.354Z,740.00
2024-02-01T07:34:19.398Z,736.00
2024-02-01T07:35:19.336Z,791.00
2024-02-01T07:36:19.778Z,823.00
2024-02-01T07:37:19.355Z,829.00
2024-02-01T07:38:19.405Z,843.00
2024-02-01T07:39:19.440Z,850.00
2024-02-01T07:40:19.405Z,833.00
2024-02-01T07:41:19.689Z,803.00
2024-02-01T07:42:19.607Z,795.00
2024-02-01T07:43:19.511Z,779.00
2024-02-01T07:44:19.566Z,727.00
2024-02-01T07:45:19.769Z,721.00
2024-02-01T07:46:19.657Z,714.00
2024-02-01T07:47:19.690Z,718.00
2024-02-01T07:48:19.775Z,727.00
2024-02-01T07:49:19.791Z,807.00
2024-02-01T07:50:19.730Z,792.00
2024-02-01T07:51:19.823Z,779.00
2024-02-01T07:52:19.735Z,788.00
2024-02-01T07:53:19.725Z,787.00
2024-02-01T07:54:19.825Z,803.00
2024-02-01T07:55:19.734Z,784.00
2024-02-01T07:56:20.238Z,775.00
2024-02-01T07:57:19.865Z,769.00
2024-02-01T07:58:19.772Z,763.00
2024-02-01T07:59:19.833Z,756.00
2024-02-01T08:00:19.962Z,765.00
2024-02-01T08:01:20.090Z,769.00
2024-02-01T08:02:19.799Z,775.00
2024-02-01T08:03:19.906Z,776.00
2024-02-01T08:04:19.972Z,787.00
2024-02-01T08:05:19.995Z,806.00
2024-02-01T08:06:20.318Z,868.00
2024-02-01T08:07:20.257Z,864.00
2024-02-01T08:08:20.162Z,868.00
2024-02-01T08:09:20.269Z,870.00
2024-02-01T08:10:20.549Z,873.00
2024-02-01T08:11:23.093Z,880.00
2024-02-01T08:12:20.843Z,900.00
2024-02-01T08:13:20.284Z,914.00
2024-02-01T08:14:20.282Z,924.00
2024-02-01T08:15:20.426Z,933.00
2024-02-01T08:16:20.290Z,950.00
2024-02-01T08:17:20.310Z,964.00
2024-02-01T08:18:20.353Z,978.00
2024-02-01T08:19:29.084Z,983.00
2024-02-01T08:20:21.354Z,978.00
2024-02-01T08:21:20.363Z,987.00
2024-02-01T08:22:20.297Z,996.00
2024-02-01T08:23:20.395Z,1010.00
2024-02-01T08:24:20.385Z,1023.00
2024-02-01T08:25:20.301Z,1037.00
2024-02-01T08:26:20.722Z,1040.00
2024-02-01T08:27:20.431Z,1045.00
2024-02-01T08:28:20.311Z,1049.00
2024-02-01T08:29:20.304Z,1057.00
2024-02-01T08:30:20.350Z,1064.00
2024-02-01T08:31:20.727Z,1059.00
2024-02-01T08:32:20.302Z,1065.00
2024-02-01T08:33:20.528Z,1065.00
2024-02-01T08:34:20.453Z,1067.00
2024-02-01T08:35:20.481Z,1074.00
2024-02-01T08:36:20.536Z,1083.00
2024-02-01T08:37:20.541Z,1092.00
2024-02-01T08:38:20.611Z,1095.00
2024-02-01T08:39:20.823Z,1090.00
2024-02-01T08:40:20.731Z,1062.00
2024-02-01T08:41:20.839Z,1069.00
2024-02-01T08:42:20.882Z,1077.00
2024-02-01T08:43:20.888Z,1080.00
2024-02-01T08:44:20.937Z,1083.00
2024-02-01T08:45:21.014Z,1088.00
2024-02-01T08:46:21.056Z,1083.00
2024-02-01T08:47:21.090Z,1085.00
2024-02-01T08:48:21.231Z,1077.00
2024-02-01T08:49:21.227Z,1074.00
2024-02-01T08:50:21.256Z,1080.00
2024-02-01T08:51:21.340Z,1093.00
2024-02-01T08:52:21.351Z,1096.00
2024-02-01T08:53:21.356Z,1101.00
2024-02-01T08:54:21.524Z,1102.00
2024-02-01T08:55:21.517Z,1090.00
2024-02-01T08:56:21.532Z,1061.00
2024-02-01T08:57:21.570Z,1066.00
2024-02-01T08:58:21.611Z,1077.00
2024-02-01T08:59:21.635Z,1081.00
2024-02-01T09:00:21.817Z,1081.00
2024-02-01T09:01:21.791Z,1071.00
2024-02-01T09:02:21.784Z,1077.00
2024-02-01T09:03:21.949Z,1086.00
2024-02-01T09:04:21.921Z,1085.00
2024-02-01T09:05:22.075Z,1090.00
2024-02-01T09:06:22.373Z,1096.00
2024-02-01T09:07:22.330Z,1073.00
2024-02-01T09:08:22.045Z,1067.00
2024-02-01T09:09:22.161Z,996.00
2024-02-01T09:10:22.115Z,1004.00
2024-02-01T09:11:22.183Z,1020.00
2024-02-01T09:12:22.269Z,1025.00
2024-02-01T09:13:22.287Z,1032.00
2024-02-01T09:14:22.293Z,1048.00
2024-02-01T09:15:22.351Z,1048.00
2024-02-01T09:16:22.394Z,1040.00
2024-02-01T09:17:22.415Z,1047.00
2024-02-01T09:18:22.540Z,1056.00
2024-02-01T09:19:22.786Z,1060.00
2024-02-01T09:20:22.575Z,1061.00
2024-02-01T09:21:22.763Z,1065.00
2024-02-01T09:22:22.609Z,1073.00
2024-02-01T09:23:22.651Z,1073.00
2024-02-01T09:24:22.812Z,1072.00
2024-02-01T09:25:22.717Z,1075.00
2024-02-01T09:26:22.784Z,1082.00
2024-02-01T09:27:22.824Z,1091.00
2024-02-01T09:28:22.846Z,1093.00
2024-02-01T09:29:22.869Z,1097.00
2024-02-01T09:30:22.962Z,1103.00
2024-02-01T09:31:23.167Z,1093.00
2024-02-01T09:32:22.989Z,1094.00
2024-02-01T09:33:23.158Z,1088.00
2024-02-01T09:34:23.224Z,1093.00
2024-02-01T09:35:23.108Z,1076.00
2024-02-01T09:36:23.379Z,1054.00
2024-02-01T09:37:25.005Z,1058.00
2024-02-01T09:38:23.288Z,1057.00
2024-02-01T09:39:23.345Z,1064.00
2024-02-01T09:40:23.372Z,1064.00
2024-02-01T09:41:23.775Z,1070.00
2024-02-01T09:42:23.845Z,1095.00
2024-02-01T09:43:23.580Z,1106.00
2024-02-01T09:44:23.505Z,1106.00
2024-02-01T09:45:23.572Z,1116.00
2024-02-01T09:46:23.577Z,1124.00
2024-02-01T09:47:23.641Z,1124.00
2024-02-01T09:48:23.766Z,1121.00
2024-02-01T09:49:28.382Z,1112.00
2024-02-01T09:50:24.786Z,1107.00
2024-02-01T09:51:23.782Z,1069.00
2024-02-01T09:52:23.751Z,1080.00
2024-02-01T09:53:23.717Z,1083.00
2024-02-01T09:54:23.770Z,1091.00
2024-02-01T09:55:23.708Z,1081.00
2024-02-01T09:56:23.698Z,1078.00
2024-02-01T09:57:23.778Z,1076.00
2024-02-01T09:58:23.743Z,1076.00
2024-02-01T09:59:23.738Z,1099.00
2024-02-01T10:00:24.020Z,1133.00
2024-02-01T10:01:23.734Z,1151.00
2024-02-01T10:02:23.704Z,1139.00
2024-02-01T10:03:23.804Z,1043.00
2024-02-01T10:04:24.661Z,1056.00
2024-02-01T10:05:23.734Z,1084.00
2024-02-01T10:06:23.863Z,1098.00
2024-02-01T10:07:23.832Z,1112.00
2024-02-01T10:08:23.748Z,1129.00
2024-02-01T10:09:24.628Z,1158.00
2024-02-01T10:10:23.720Z,1172.00
2024-02-01T10:11:23.723Z,1179.00
2024-02-01T10:12:23.755Z,1189.00
2024-02-01T10:13:23.715Z,1196.00
2024-02-01T10:14:23.713Z,1205.00
2024-02-01T10:15:23.792Z,1212.00
2024-02-01T10:16:23.733Z,1221.00
2024-02-01T10:17:23.731Z,1228.00
2024-02-01T10:18:23.830Z,1239.00
2024-02-01T10:19:23.894Z,1247.00
2024-02-01T10:20:23.752Z,1250.00
2024-02-01T10:21:29.763Z,1243.00
2024-02-01T10:22:24.745Z,1248.00
2024-02-01T10:23:23.757Z,1252.00
2024-02-01T10:24:23.850Z,1256.00
2024-02-01T10:25:23.849Z,1255.00
2024-02-01T10:26:23.764Z,1245.00
2024-02-01T10:27:25.202Z,1146.00
2024-02-01T10:28:23.765Z,1125.00
2024-02-01T10:29:23.740Z,1115.00
2024-02-01T10:30:23.862Z,1101.00
2024-02-01T10:31:23.805Z,1088.00
2024-02-01T10:32:23.784Z,1088.00
2024-02-01T10:33:25.582Z,982.00
2024-02-01T10:34:23.977Z,966.00
2024-02-01T10:35:23.854Z,961.00
2024-02-01T10:36:23.959Z,956.00
2024-02-01T10:37:23.796Z,1018.00
2024-02-01T10:38:23.768Z,994.00
2024-02-01T10:39:23.928Z,1032.00
2024-02-01T10:40:23.769Z,1096.00
2024-02-01T10:41:23.776Z,1146.00
2024-02-01T10:42:23.916Z,1167.00
2024-02-01T10:43:23.754Z,1185.00
2024-02-01T10:44:23.768Z,1192.00
2024-02-01T10:45:23.853Z,1250.00
2024-02-01T10:46:24.308Z,1257.00
2024-02-01T10:47:23.842Z,1265.00
2024-02-01T10:48:23.940Z,1270.00
2024-02-01T10:49:23.955Z,1278.00
2024-02-01T10:50:23.774Z,1275.00
2024-02-01T10:51:23.809Z,1278.00
2024-02-01T10:52:23.784Z,1284.00
2024-02-01T10:53:23.775Z,1287.00
2024-02-01T10:54:24.042Z,1282.00
2024-02-01T10:55:23.853Z,1280.00
2024-02-01T10:56:23.779Z,1289.00
2024-02-01T10:57:24.295Z,1289.00
2024-02-01T10:58:23.781Z,1284.00
2024-02-01T10:59:23.805Z,1275.00
2024-02-01T11:00:23.923Z,1263.00
2024-02-01T11:01:23.885Z,1219.00
2024-02-01T11:02:23.791Z,1228.00
2024-02-01T11:03:23.899Z,1243.00
2024-02-01T11:04:23.855Z,1244.00
2024-02-01T11:05:23.812Z,1238.00
2024-02-01T11:06:23.859Z,1236.00
2024-02-01T11:07:23.808Z,1241.00
2024-02-01T11:08:23.792Z,1245.00
2024-02-01T11:09:26.405Z,1245.00
2024-02-01T11:10:23.842Z,1243.00
2024-02-01T11:11:23.853Z,1237.00
2024-02-01T11:12:23.953Z,1232.00
2024-02-01T11:13:23.798Z,1228.00
2024-02-01T11:14:23.808Z,1228.00
2024-02-01T11:15:25.942Z,1233.00
2024-02-01T11:16:23.811Z,1181.00
2024-02-01T11:17:24.306Z,1213.00
2024-02-01T11:18:24.090Z,1192.00
2024-02-01T11:19:24.084Z,1160.00
2024-02-01T11:20:23.824Z,1115.00
2024-02-01T11:21:24.304Z,1117.00
2024-02-01T11:22:24.289Z,1160.00
2024-02-01T11:23:23.826Z,1174.00
2024-02-01T11:24:23.826Z,1183.00
2024-02-01T11:25:23.840Z,1201.00
2024-02-01T11:26:24.280Z,1227.00
2024-02-01T11:27:23.986Z,1285.00
2024-02-01T11:28:23.848Z,1303.00
2024-02-01T11:29:23.841Z,1310.00
2024-02-01T11:30:23.870Z,1314.00
2024-02-01T11:31:30.572Z,1308.00
2024-02-01T11:32:24.924Z,1311.00
2024-02-01T11:33:24.020Z,1332.00
2024-02-01T11:34:24.177Z,1346.00
2024-02-01T11:35:24.180Z,1355.00
2024-02-01T11:36:24.180Z,1357.00
2024-02-01T11:37:27.562Z,1367.00
2024-02-01T11:38:25.188Z,1353.00
2024-02-01T11:39:24.195Z,1337.00
2024-02-01T11:40:24.173Z,1316.00
2024-02-01T11:41:24.257Z,1294.00
2024-02-01T11:42:31.426Z,1274.00
2024-02-01T11:43:25.188Z,1217.00
2024-02-01T11:44:24.193Z,1231.00
2024-02-01T11:45:24.277Z,1242.00
2024-02-01T11:46:24.184Z,1254.00
2024-02-01T11:47:24.334Z,1248.00
2024-02-01T11:48:24.292Z,1238.00
2024-02-01T11:49:26.166Z,1241.00
2024-02-01T11:50:24.186Z,1246.00
2024-02-01T11:51:24.228Z,1254.00
2024-02-01T11:52:24.196Z,1260.00
2024-02-01T11:53:24.200Z,1253.00
2024-02-01T11:54:24.225Z,1258.00
2024-02-01T11:55:26.402Z,1264.00
2024-02-01T11:56:24.214Z,1271.00
2024-02-01T11:57:24.248Z,1280.00
2024-02-01T11:58:24.211Z,1285.00
2024-02-01T11:59:24.215Z,1281.00
2024-02-01T12:00:33.130Z,1289.00
2024-02-01T12:01:27.245Z,1294.00
2024-02-01T12:02:24.224Z,1304.00
2024-02-01T12:03:24.217Z,1314.00
2024-02-01T12:04:24.256Z,1317.00
2024-02-01T12:05:24.208Z,1300.00
2024-02-01T12:06:24.629Z,1302.00
2024-02-01T12:07:24.478Z,1308.00
2024-02-01T12:08:24.297Z,1317.00
2024-02-01T12:09:24.260Z,1318.00
2024-02-01T12:10:24.218Z,1309.00
2024-02-01T12:11:24.263Z,1290.00
2024-02-01T12:12:24.504Z,1283.00
2024-02-01T12:13:24.226Z,1259.00
2024-02-01T12:14:24.246Z,1216.00
2024-02-01T12:15:24.267Z,1203.00
2024-02-01T12:16:24.245Z,1205.00
2024-02-01T12:17:24.304Z,1183.00
2024-02-01T12:18:24.419Z,969.00
2024-02-01T12:19:24.434Z,1091.00
2024-02-01T12:20:24.436Z,1030.00
2024-02-01T12:21:24.514Z,1010.00
2024-02-01T12:22:24.590Z,989.00